WGN618 KSJC-KGEG
Flight info
| Callsign | WGN618 |
|---|---|
| Flight time | 1h 40m |
| Altitude | 37000 |
| Route | ALMDN4 HRNER JUNEJ RIELY JELTI/N0480F380 BLUNT |
| Aircraft | MD1F/H-SDE1E2E3FGHIJ2J3J4J5M1RWXY/LB1D1 |
Departure
| Time | 2026-04-22 19:24 |
|---|---|
| Airport | Norman Y. Mineta San Jose International Airport (KSJC) |
Arrival
| Time | 2026-04-22 21:04 |
|---|---|
| Airport | Spokane International Airport (KGEG) |
| Time | Latitude | Longitude | Altitude | Speed | Heading |
|---|---|---|---|---|---|
| 2026-04-22 19:10 | 37.35606 | -121.91664 | 66 ft | 0 kts | 300° |
| 2026-04-22 19:18 | 37.35621 | -121.91693 | 66 ft | 8 kts | 307° |
| 2026-04-22 19:19 | 37.35682 | -121.91768 | 65 ft | 16 kts | 319° |
| 2026-04-22 19:19 | 37.35784 | -121.91879 | 63 ft | 22 kts | 319° |
| 2026-04-22 19:19 | 37.35910 | -121.92017 | 60 ft | 25 kts | 318° |
| 2026-04-22 19:19 | 37.36052 | -121.92173 | 59 ft | 28 kts | 319° |
| 2026-04-22 19:20 | 37.36204 | -121.92339 | 58 ft | 31 kts | 319° |
| 2026-04-22 19:20 | 37.36373 | -121.92526 | 55 ft | 34 kts | 319° |
| 2026-04-22 19:20 | 37.36555 | -121.92725 | 52 ft | 37 kts | 319° |
| 2026-04-22 19:20 | 37.36675 | -121.92884 | 52 ft | 21 kts | 284° |
| 2026-04-22 19:21 | 37.36755 | -121.93041 | 50 ft | 24 kts | 317° |
| 2026-04-22 19:21 | 37.36882 | -121.93184 | 48 ft | 27 kts | 319° |
| 2026-04-22 19:21 | 37.37030 | -121.93342 | 45 ft | 31 kts | 319° |
| 2026-04-22 19:21 | 37.37190 | -121.93518 | 45 ft | 33 kts | 319° |
| 2026-04-22 19:22 | 37.37358 | -121.93703 | 45 ft | 35 kts | 319° |
| 2026-04-22 19:22 | 37.37485 | -121.93838 | 45 ft | 10 kts | 320° |
| 2026-04-22 19:22 | 37.37527 | -121.93912 | 46 ft | 11 kts | 277° |
| 2026-04-22 19:22 | 37.37486 | -121.93980 | 48 ft | 11 kts | 184° |
| 2026-04-22 19:23 | 37.37426 | -121.93941 | 47 ft | 0 kts | 143° |
| 2026-04-22 19:23 | 37.37387 | -121.93901 | 46 ft | 30 kts | 138° |
| 2026-04-22 19:24 | 37.37025 | -121.93484 | 45 ft | 114 kts | 139° |
| 2026-04-22 19:24 | 37.36296 | -121.92693 | 84 ft | 176 kts | 137° |
| 2026-04-22 19:24 | 37.35443 | -121.91772 | 877 ft | 172 kts | 142° |
| 2026-04-22 19:24 | 37.34591 | -121.90906 | 1672 ft | 174 kts | 140° |
| 2026-04-22 19:25 | 37.33775 | -121.89983 | 2322 ft | 175 kts | 139° |
| 2026-04-22 19:25 | 37.32914 | -121.88982 | 2892 ft | 178 kts | 139° |
| 2026-04-22 19:25 | 37.32079 | -121.88010 | 3387 ft | 185 kts | 140° |
| 2026-04-22 19:25 | 37.31261 | -121.86828 | 3650 ft | 207 kts | 124° |
| 2026-04-22 19:26 | 37.30658 | -121.85215 | 3898 ft | 233 kts | 104° |
| 2026-04-22 19:26 | 37.30549 | -121.83185 | 4354 ft | 255 kts | 79° |
| 2026-04-22 19:26 | 37.31178 | -121.81094 | 5124 ft | 268 kts | 55° |
| 2026-04-22 19:26 | 37.32323 | -121.79216 | 5999 ft | 278 kts | 46° |
| 2026-04-22 19:27 | 37.33651 | -121.77457 | 6930 ft | 284 kts | 37° |
| 2026-04-22 19:27 | 37.35278 | -121.76125 | 7973 ft | 285 kts | 20° |
| 2026-04-22 19:27 | 37.37174 | -121.75491 | 9029 ft | 283 kts | 1° |
| 2026-04-22 19:27 | 37.39113 | -121.75410 | 10061 ft | 284 kts | 355° |
| 2026-04-22 19:28 | 37.41150 | -121.75486 | 10804 ft | 303 kts | 355° |
| 2026-04-22 19:28 | 37.43342 | -121.75571 | 11213 ft | 331 kts | 353° |
| 2026-04-22 19:28 | 37.45655 | -121.75819 | 11573 ft | 357 kts | 349° |
| 2026-04-22 19:28 | 37.48090 | -121.76359 | 12161 ft | 372 kts | 342° |
| 2026-04-22 19:29 | 37.50542 | -121.77091 | 13050 ft | 380 kts | 343° |
| 2026-04-22 19:29 | 37.53098 | -121.77863 | 14050 ft | 386 kts | 342° |
| 2026-04-22 19:29 | 37.55678 | -121.78665 | 15070 ft | 391 kts | 341° |
| 2026-04-22 19:29 | 37.58302 | -121.79488 | 16063 ft | 396 kts | 341° |
| 2026-04-22 19:30 | 37.60072 | -121.80046 | 16703 ft | 399 kts | 341° |
| 2026-04-22 19:30 | 37.63671 | -121.81180 | 17908 ft | 407 kts | 340° |
| 2026-04-22 19:30 | 37.66462 | -121.82054 | 18853 ft | 412 kts | 339° |
| 2026-04-22 19:30 | 37.69217 | -121.82906 | 19735 ft | 417 kts | 339° |
| 2026-04-22 19:31 | 37.72041 | -121.83786 | 20639 ft | 420 kts | 339° |
| 2026-04-22 19:31 | 37.74905 | -121.84691 | 21482 ft | 425 kts | 339° |
| 2026-04-22 19:31 | 37.77775 | -121.85595 | 22311 ft | 430 kts | 338° |
| 2026-04-22 19:31 | 37.80709 | -121.86510 | 23128 ft | 435 kts | 338° |
| 2026-04-22 19:32 | 37.83628 | -121.87434 | 23939 ft | 439 kts | 337° |
| 2026-04-22 19:32 | 37.86606 | -121.88416 | 24655 ft | 445 kts | 336° |
| 2026-04-22 19:32 | 37.89605 | -121.89402 | 25435 ft | 449 kts | 337° |
| 2026-04-22 19:32 | 37.92632 | -121.90369 | 26140 ft | 454 kts | 337° |
| 2026-04-22 19:33 | 37.95731 | -121.91332 | 26818 ft | 460 kts | 338° |
| 2026-04-22 19:33 | 37.98879 | -121.92313 | 27507 ft | 466 kts | 338° |
| 2026-04-22 19:33 | 38.02020 | -121.93313 | 28181 ft | 470 kts | 338° |
| 2026-04-22 19:33 | 38.05254 | -121.94340 | 29059 ft | 471 kts | 338° |
| 2026-04-22 19:34 | 38.08585 | -121.95386 | 29987 ft | 470 kts | 338° |
| 2026-04-22 19:34 | 38.12104 | -121.96487 | 31035 ft | 467 kts | 338° |
| 2026-04-22 19:34 | 38.15478 | -121.97546 | 31957 ft | 464 kts | 337° |
| 2026-04-22 19:34 | 38.18980 | -121.98650 | 32864 ft | 461 kts | 337° |
| 2026-04-22 19:35 | 38.22603 | -121.99796 | 33761 ft | 458 kts | 337° |
| 2026-04-22 19:35 | 38.26230 | -122.00930 | 34481 ft | 455 kts | 337° |
| 2026-04-22 19:35 | 38.28635 | -122.01520 | 34770 ft | 463 kts | 344° |
| 2026-04-22 19:35 | 38.33756 | -122.01584 | 35326 ft | 481 kts | 359° |
| 2026-04-22 19:36 | 38.37682 | -122.00567 | 35732 ft | 493 kts | 8° |
| 2026-04-22 19:36 | 38.41524 | -121.98960 | 36160 ft | 499 kts | 11° |
| 2026-04-22 19:36 | 38.45326 | -121.97263 | 36755 ft | 497 kts | 11° |
| 2026-04-22 19:36 | 38.49188 | -121.95623 | 37292 ft | 496 kts | 10° |
| 2026-04-22 19:37 | 38.53005 | -121.94071 | 37285 ft | 491 kts | 10° |
| 2026-04-22 19:37 | 38.60628 | -121.91031 | 37232 ft | 487 kts | 9° |
| 2026-04-22 19:38 | 38.68288 | -121.87938 | 37248 ft | 491 kts | 10° |
| 2026-04-22 19:38 | 38.75960 | -121.84873 | 37208 ft | 491 kts | 10° |
| 2026-04-22 19:39 | 38.83615 | -121.81796 | 37221 ft | 492 kts | 10° |
| 2026-04-22 19:39 | 38.91248 | -121.78716 | 37204 ft | 491 kts | 10° |
| 2026-04-22 19:40 | 38.98885 | -121.75650 | 37224 ft | 492 kts | 10° |
| 2026-04-22 19:40 | 39.06510 | -121.72588 | 37226 ft | 490 kts | 10° |
| 2026-04-22 19:41 | 39.13979 | -121.69584 | 37223 ft | 491 kts | 11° |
| 2026-04-22 19:41 | 39.21502 | -121.66531 | 37229 ft | 491 kts | 11° |
| 2026-04-22 19:42 | 39.28913 | -121.63469 | 37218 ft | 490 kts | 11° |
| 2026-04-22 19:42 | 39.36430 | -121.60368 | 37233 ft | 490 kts | 11° |
| 2026-04-22 19:43 | 39.47480 | -121.55814 | 37234 ft | 490 kts | 11° |
| 2026-04-22 19:43 | 39.54941 | -121.52750 | 37224 ft | 489 kts | 12° |
| 2026-04-22 19:44 | 39.61799 | -121.49925 | 37209 ft | 488 kts | 12° |
| 2026-04-22 19:44 | 39.68248 | -121.47323 | 37223 ft | 487 kts | 12° |
| 2026-04-22 19:45 | 39.74752 | -121.44598 | 37198 ft | 488 kts | 11° |
| 2026-04-22 19:45 | 39.81067 | -121.42009 | 37193 ft | 488 kts | 11° |
| 2026-04-22 19:46 | 39.87130 | -121.39501 | 37193 ft | 488 kts | 11° |
| 2026-04-22 19:46 | 39.93522 | -121.36880 | 37171 ft | 487 kts | 12° |
| 2026-04-22 19:47 | 39.99869 | -121.34257 | 37155 ft | 487 kts | 14° |
| 2026-04-22 19:47 | 40.06122 | -121.31596 | 37156 ft | 488 kts | 12° |
| 2026-04-22 19:48 | 40.12467 | -121.28909 | 37157 ft | 488 kts | 13° |
| 2026-04-22 19:48 | 40.19020 | -121.26148 | 37159 ft | 488 kts | 13° |
| 2026-04-22 19:49 | 40.25609 | -121.23370 | 37158 ft | 487 kts | 12° |
| 2026-04-22 19:49 | 40.32210 | -121.20579 | 37147 ft | 487 kts | 13° |
| 2026-04-22 19:50 | 40.38708 | -121.17855 | 37123 ft | 486 kts | 14° |
| 2026-04-22 19:50 | 40.45223 | -121.15095 | 37099 ft | 485 kts | 14° |
| 2026-04-22 19:51 | 40.51718 | -121.12353 | 37088 ft | 485 kts | 12° |
| 2026-04-22 19:51 | 40.58226 | -121.09627 | 37076 ft | 484 kts | 12° |
| 2026-04-22 19:52 | 40.64677 | -121.06892 | 37072 ft | 484 kts | 13° |
| 2026-04-22 19:52 | 40.71143 | -121.04182 | 37073 ft | 484 kts | 12° |
| 2026-04-22 19:53 | 40.77688 | -121.01392 | 37077 ft | 484 kts | 14° |
| 2026-04-22 19:53 | 40.84233 | -120.98590 | 37077 ft | 484 kts | 14° |
| 2026-04-22 19:54 | 40.90834 | -120.95764 | 37075 ft | 483 kts | 14° |
| 2026-04-22 19:54 | 40.97309 | -120.92937 | 37068 ft | 485 kts | 15° |
| 2026-04-22 19:55 | 41.03656 | -120.89733 | 37078 ft | 487 kts | 18° |
| 2026-04-22 19:55 | 41.09870 | -120.86064 | 37079 ft | 487 kts | 21° |
| 2026-04-22 19:56 | 41.16060 | -120.82291 | 37082 ft | 487 kts | 19° |
| 2026-04-22 19:56 | 41.22210 | -120.78605 | 37084 ft | 487 kts | 20° |
| 2026-04-22 19:57 | 41.28367 | -120.74878 | 37082 ft | 486 kts | 21° |
| 2026-04-22 19:57 | 41.34558 | -120.71164 | 37089 ft | 487 kts | 20° |
| 2026-04-22 19:58 | 41.40790 | -120.67394 | 37102 ft | 487 kts | 21° |
| 2026-04-22 19:58 | 41.47092 | -120.63623 | 37115 ft | 486 kts | 21° |
| 2026-04-22 20:00 | 41.68877 | -120.50494 | 37129 ft | 486 kts | 20° |
| 2026-04-22 20:01 | 41.75263 | -120.46644 | 37119 ft | 486 kts | 21° |
| 2026-04-22 20:01 | 41.81667 | -120.42785 | 37113 ft | 486 kts | 21° |
| 2026-04-22 20:02 | 41.87825 | -120.38999 | 37100 ft | 486 kts | 21° |
| 2026-04-22 20:02 | 41.94012 | -120.35169 | 37088 ft | 486 kts | 21° |
| 2026-04-22 20:03 | 42.00153 | -120.31366 | 37085 ft | 486 kts | 23° |
| 2026-04-22 20:03 | 42.06312 | -120.27550 | 37085 ft | 486 kts | 21° |
| 2026-04-22 20:04 | 42.12489 | -120.23727 | 37088 ft | 485 kts | 21° |
| 2026-04-22 20:04 | 42.18625 | -120.19940 | 37084 ft | 484 kts | 23° |
| 2026-04-22 20:05 | 42.24795 | -120.16129 | 37078 ft | 483 kts | 23° |
| 2026-04-22 20:05 | 42.30897 | -120.12348 | 37066 ft | 484 kts | 22° |
| 2026-04-22 20:06 | 42.37147 | -120.08539 | 37066 ft | 483 kts | 21° |
| 2026-04-22 20:06 | 42.43389 | -120.04642 | 37062 ft | 483 kts | 22° |
| 2026-04-22 20:07 | 42.49595 | -120.00810 | 37065 ft | 482 kts | 23° |
| 2026-04-22 20:07 | 42.55836 | -119.96956 | 37054 ft | 481 kts | 22° |
| 2026-04-22 20:08 | 42.62008 | -119.93063 | 37048 ft | 480 kts | 22° |
| 2026-04-22 20:08 | 42.68145 | -119.89146 | 37051 ft | 479 kts | 22° |
| 2026-04-22 20:09 | 42.74249 | -119.85263 | 37048 ft | 479 kts | 22° |
| 2026-04-22 20:09 | 42.80390 | -119.81360 | 37047 ft | 479 kts | 22° |
| 2026-04-22 20:10 | 42.86521 | -119.77477 | 37054 ft | 480 kts | 22° |
| 2026-04-22 20:10 | 42.92711 | -119.73542 | 37053 ft | 480 kts | 22° |
| 2026-04-22 20:11 | 42.98909 | -119.69604 | 37042 ft | 479 kts | 24° |
| 2026-04-22 20:11 | 43.04995 | -119.65752 | 37036 ft | 479 kts | 23° |
| 2026-04-22 20:12 | 43.11058 | -119.61896 | 37042 ft | 478 kts | 23° |
| 2026-04-22 20:12 | 43.16091 | -119.58695 | 37045 ft | 477 kts | 22° |
| 2026-04-22 20:13 | 43.23186 | -119.54163 | 37045 ft | 477 kts | 23° |
| 2026-04-22 20:13 | 43.29274 | -119.50353 | 37052 ft | 478 kts | 24° |
| 2026-04-22 20:14 | 43.35327 | -119.46507 | 37058 ft | 478 kts | 24° |
| 2026-04-22 20:14 | 43.41376 | -119.42554 | 37045 ft | 477 kts | 24° |
| 2026-04-22 20:15 | 43.47422 | -119.38634 | 37028 ft | 475 kts | 24° |
| 2026-04-22 20:15 | 43.53474 | -119.34713 | 37021 ft | 475 kts | 25° |
| 2026-04-22 20:16 | 43.59461 | -119.30838 | 37031 ft | 475 kts | 24° |
| 2026-04-22 20:16 | 43.65506 | -119.26910 | 37028 ft | 475 kts | 24° |
| 2026-04-22 20:17 | 43.71536 | -119.22816 | 37018 ft | 475 kts | 25° |
| 2026-04-22 20:17 | 43.77580 | -119.18688 | 37011 ft | 475 kts | 24° |
| 2026-04-22 20:18 | 43.83668 | -119.14582 | 37012 ft | 475 kts | 26° |
| 2026-04-22 20:18 | 43.89714 | -119.10491 | 36998 ft | 473 kts | 24° |
| 2026-04-22 20:19 | 43.95725 | -119.06414 | 36998 ft | 473 kts | 24° |
| 2026-04-22 20:19 | 44.01676 | -119.02387 | 37000 ft | 473 kts | 24° |
| 2026-04-22 20:20 | 44.07621 | -118.98365 | 36992 ft | 472 kts | 25° |
| 2026-04-22 20:20 | 44.13549 | -118.94350 | 36993 ft | 472 kts | 26° |
| 2026-04-22 20:21 | 44.19519 | -118.90327 | 36988 ft | 472 kts | 25° |
| 2026-04-22 20:21 | 44.25431 | -118.86317 | 36980 ft | 471 kts | 24° |
| 2026-04-22 20:22 | 44.31382 | -118.82303 | 36978 ft | 470 kts | 24° |
| 2026-04-22 20:22 | 44.37644 | -118.78077 | 37004 ft | 470 kts | 25° |
| 2026-04-22 20:23 | 44.43945 | -118.73745 | 36986 ft | 470 kts | 26° |
| 2026-04-22 20:23 | 44.50455 | -118.69200 | 36981 ft | 470 kts | 26° |
| 2026-04-22 20:24 | 44.56307 | -118.65140 | 36954 ft | 470 kts | 26° |
| 2026-04-22 20:24 | 44.62117 | -118.61105 | 36945 ft | 468 kts | 26° |
| 2026-04-22 20:25 | 44.67860 | -118.57127 | 36934 ft | 467 kts | 26° |
| 2026-04-22 20:25 | 44.73552 | -118.53177 | 36930 ft | 468 kts | 25° |
| 2026-04-22 20:26 | 44.79481 | -118.49068 | 36916 ft | 468 kts | 25° |
| 2026-04-22 20:26 | 44.85410 | -118.44960 | 36921 ft | 468 kts | 26° |
| 2026-04-22 20:27 | 44.91282 | -118.40891 | 36898 ft | 467 kts | 26° |
| 2026-04-22 20:27 | 44.97112 | -118.37025 | 36887 ft | 465 kts | 20° |
| 2026-04-22 20:28 | 45.03318 | -118.34274 | 36885 ft | 464 kts | 16° |
| 2026-04-22 20:28 | 45.09550 | -118.32024 | 36883 ft | 465 kts | 14° |
| 2026-04-22 20:29 | 45.15915 | -118.29958 | 36883 ft | 466 kts | 13° |
| 2026-04-22 20:29 | 45.22463 | -118.27798 | 36900 ft | 466 kts | 13° |
| 2026-04-22 20:30 | 45.28931 | -118.25677 | 36908 ft | 466 kts | 13° |
| 2026-04-22 20:30 | 45.35461 | -118.23537 | 36909 ft | 466 kts | 13° |
| 2026-04-22 20:31 | 45.41864 | -118.21441 | 36901 ft | 466 kts | 13° |
| 2026-04-22 20:31 | 45.48327 | -118.19330 | 36894 ft | 466 kts | 13° |
| 2026-04-22 20:32 | 45.54768 | -118.17217 | 36896 ft | 467 kts | 13° |
| 2026-04-22 20:32 | 45.61185 | -118.15123 | 36894 ft | 467 kts | 13° |
| 2026-04-22 20:33 | 45.67536 | -118.13039 | 36891 ft | 467 kts | 13° |
| 2026-04-22 20:33 | 45.74024 | -118.10920 | 36889 ft | 467 kts | 13° |
| 2026-04-22 20:34 | 45.80611 | -118.08764 | 36882 ft | 468 kts | 14° |
| 2026-04-22 20:34 | 45.86855 | -118.06721 | 36890 ft | 467 kts | 14° |
| 2026-04-22 20:35 | 45.93176 | -118.04587 | 36890 ft | 467 kts | 14° |
| 2026-04-22 20:35 | 45.99513 | -118.02440 | 36809 ft | 469 kts | 14° |
| 2026-04-22 20:35 | 46.02641 | -118.01394 | 36349 ft | 474 kts | 14° |
| 2026-04-22 20:36 | 46.05728 | -118.00354 | 36056 ft | 466 kts | 14° |
| 2026-04-22 20:36 | 46.08826 | -117.99298 | 35573 ft | 459 kts | 15° |
| 2026-04-22 20:36 | 46.11871 | -117.98270 | 35108 ft | 452 kts | 14° |
| 2026-04-22 20:36 | 46.14932 | -117.97242 | 34287 ft | 448 kts | 14° |
| 2026-04-22 20:37 | 46.17964 | -117.96223 | 33438 ft | 442 kts | 15° |
| 2026-04-22 20:37 | 46.21163 | -117.95140 | 32534 ft | 437 kts | 14° |
| 2026-04-22 20:37 | 46.24203 | -117.94115 | 31710 ft | 437 kts | 14° |
| 2026-04-22 20:37 | 46.27359 | -117.93051 | 30300 ft | 443 kts | 14° |
| 2026-04-22 20:38 | 46.30695 | -117.91932 | 28930 ft | 449 kts | 13° |
| 2026-04-22 20:38 | 46.34150 | -117.90758 | 27498 ft | 458 kts | 13° |
| 2026-04-22 20:38 | 46.37742 | -117.89561 | 26096 ft | 464 kts | 13° |
| 2026-04-22 20:38 | 46.41259 | -117.88377 | 24809 ft | 467 kts | 13° |
| 2026-04-22 20:39 | 46.44582 | -117.87258 | 24053 ft | 461 kts | 13° |
| 2026-04-22 20:39 | 46.47739 | -117.86189 | 23212 ft | 457 kts | 12° |
| 2026-04-22 20:39 | 46.50754 | -117.85175 | 22490 ft | 452 kts | 12° |
| 2026-04-22 20:39 | 46.53722 | -117.84182 | 21756 ft | 448 kts | 12° |
| 2026-04-22 20:40 | 46.56697 | -117.83178 | 21024 ft | 443 kts | 12° |
| 2026-04-22 20:40 | 46.59662 | -117.82167 | 20299 ft | 438 kts | 13° |
| 2026-04-22 20:40 | 46.62600 | -117.81177 | 19589 ft | 434 kts | 13° |
| 2026-04-22 20:40 | 46.65526 | -117.80198 | 18859 ft | 429 kts | 13° |
| 2026-04-22 20:41 | 46.68442 | -117.79219 | 18155 ft | 425 kts | 13° |
| 2026-04-22 20:41 | 46.71291 | -117.78245 | 17488 ft | 420 kts | 13° |
| 2026-04-22 20:41 | 46.74081 | -117.77279 | 16813 ft | 416 kts | 13° |
| 2026-04-22 20:41 | 46.76886 | -117.76296 | 16241 ft | 411 kts | 13° |
| 2026-04-22 20:42 | 46.79650 | -117.75338 | 15604 ft | 412 kts | 13° |
| 2026-04-22 20:42 | 46.82420 | -117.74398 | 15081 ft | 408 kts | 12° |
| 2026-04-22 20:42 | 46.85167 | -117.73442 | 14876 ft | 406 kts | 12° |
| 2026-04-22 20:42 | 46.87947 | -117.72465 | 14865 ft | 404 kts | 13° |
| 2026-04-22 20:43 | 46.90680 | -117.71517 | 14823 ft | 402 kts | 11° |
| 2026-04-22 20:43 | 46.93410 | -117.70596 | 14757 ft | 400 kts | 12° |
| 2026-04-22 20:43 | 46.96105 | -117.69649 | 14675 ft | 399 kts | 12° |
| 2026-04-22 20:43 | 46.98797 | -117.68721 | 14580 ft | 399 kts | 10° |
| 2026-04-22 20:44 | 47.01527 | -117.67783 | 14496 ft | 399 kts | 10° |
| 2026-04-22 20:44 | 47.04219 | -117.66931 | 14406 ft | 399 kts | 8° |
| 2026-04-22 20:44 | 47.06967 | -117.66346 | 14179 ft | 397 kts | 4° |
| 2026-04-22 20:44 | 47.09698 | -117.66001 | 13755 ft | 394 kts | 2° |
| 2026-04-22 20:45 | 47.12432 | -117.65780 | 13351 ft | 390 kts | 1° |
| 2026-04-22 20:45 | 47.15105 | -117.65615 | 12965 ft | 387 kts | 2° |
| 2026-04-22 20:45 | 47.17787 | -117.65437 | 12577 ft | 384 kts | 1° |
| 2026-04-22 20:45 | 47.20439 | -117.65236 | 12176 ft | 382 kts | 2° |
| 2026-04-22 20:46 | 47.25679 | -117.64817 | 11397 ft | 367 kts | 1° |
| 2026-04-22 20:46 | 47.28183 | -117.64674 | 11008 ft | 358 kts | 1° |
| 2026-04-22 20:46 | 47.30646 | -117.64511 | 10621 ft | 351 kts | 1° |
| 2026-04-22 20:47 | 47.33070 | -117.64333 | 10275 ft | 344 kts | 0° |
| 2026-04-22 20:47 | 47.35391 | -117.64157 | 9802 ft | 332 kts | 0° |
| 2026-04-22 20:47 | 47.37650 | -117.63988 | 9357 ft | 316 kts | 0° |
| 2026-04-22 20:47 | 47.39784 | -117.63835 | 9008 ft | 300 kts | 0° |
| 2026-04-22 20:48 | 47.41797 | -117.63705 | 8598 ft | 284 kts | 358° |
| 2026-04-22 20:48 | 47.43665 | -117.63574 | 8352 ft | 261 kts | 0° |
| 2026-04-22 20:48 | 47.45386 | -117.63439 | 8291 ft | 242 kts | 358° |
| 2026-04-22 20:48 | 47.47027 | -117.63323 | 8244 ft | 230 kts | 359° |
| 2026-04-22 20:49 | 47.48629 | -117.63223 | 8177 ft | 232 kts | 359° |
| 2026-04-22 20:49 | 47.50236 | -117.63110 | 8060 ft | 230 kts | 358° |
| 2026-04-22 20:49 | 47.51840 | -117.62991 | 7899 ft | 224 kts | 359° |
| 2026-04-22 20:49 | 47.53365 | -117.62881 | 7750 ft | 213 kts | 360° |
| 2026-04-22 20:50 | 47.54814 | -117.62773 | 7641 ft | 202 kts | 359° |
| 2026-04-22 20:50 | 47.56166 | -117.62380 | 7566 ft | 198 kts | 17° |
| 2026-04-22 20:50 | 47.57350 | -117.61363 | 7496 ft | 204 kts | 34° |
| 2026-04-22 20:50 | 47.58418 | -117.59923 | 7313 ft | 211 kts | 40° |
| 2026-04-22 20:51 | 47.59413 | -117.58312 | 7201 ft | 212 kts | 41° |
| 2026-04-22 20:51 | 47.60327 | -117.56633 | 7069 ft | 220 kts | 61° |
| 2026-04-22 20:51 | 47.60566 | -117.54426 | 7009 ft | 219 kts | 95° |
| 2026-04-22 20:51 | 47.60537 | -117.52170 | 6894 ft | 221 kts | 66° |
| 2026-04-22 20:52 | 47.61313 | -117.50449 | 6834 ft | 200 kts | 27° |
| 2026-04-22 20:52 | 47.62549 | -117.49595 | 6782 ft | 202 kts | 10° |
| 2026-04-22 20:52 | 47.63902 | -117.49044 | 6577 ft | 205 kts | 14° |
| 2026-04-22 20:52 | 47.65237 | -117.48183 | 6607 ft | 230 kts | 26° |
| 2026-04-22 20:53 | 47.66503 | -117.46881 | 6408 ft | 248 kts | 36° |
| 2026-04-22 20:53 | 47.67692 | -117.45264 | 6167 ft | 258 kts | 41° |
| 2026-04-22 20:53 | 47.68864 | -117.43464 | 5956 ft | 262 kts | 43° |
| 2026-04-22 20:53 | 47.70039 | -117.41601 | 5796 ft | 262 kts | 45° |
| 2026-04-22 20:54 | 47.71269 | -117.39645 | 5651 ft | 263 kts | 43° |
| 2026-04-22 20:54 | 47.72513 | -117.37703 | 5517 ft | 263 kts | 43° |
| 2026-04-22 20:54 | 47.73754 | -117.35775 | 5513 ft | 262 kts | 44° |
| 2026-04-22 20:54 | 47.75012 | -117.33839 | 5503 ft | 262 kts | 44° |
| 2026-04-22 20:55 | 47.76268 | -117.31876 | 5481 ft | 263 kts | 50° |
| 2026-04-22 20:55 | 47.76991 | -117.29427 | 5518 ft | 260 kts | 82° |
| 2026-04-22 20:55 | 47.77043 | -117.26769 | 5510 ft | 264 kts | 96° |
| 2026-04-22 20:55 | 47.76896 | -117.24019 | 5498 ft | 264 kts | 96° |
| 2026-04-22 20:56 | 47.76807 | -117.21323 | 5494 ft | 264 kts | 91° |
| 2026-04-22 20:56 | 47.76834 | -117.18595 | 5484 ft | 265 kts | 89° |
| 2026-04-22 20:56 | 47.77378 | -117.16021 | 5482 ft | 261 kts | 56° |
| 2026-04-22 20:56 | 47.78661 | -117.14175 | 5537 ft | 260 kts | 26° |
| 2026-04-22 20:57 | 47.80391 | -117.13524 | 5541 ft | 254 kts | 354° |
| 2026-04-22 20:57 | 47.82070 | -117.14317 | 5531 ft | 246 kts | 321° |
| 2026-04-22 20:57 | 47.83146 | -117.16215 | 5518 ft | 240 kts | 292° |
| 2026-04-22 20:57 | 47.83557 | -117.18619 | 5438 ft | 236 kts | 267° |
| 2026-04-22 20:58 | 47.83225 | -117.21001 | 5465 ft | 237 kts | 247° |
| 2026-04-22 20:58 | 47.82364 | -117.23099 | 5452 ft | 237 kts | 231° |
| 2026-04-22 20:58 | 47.81224 | -117.24897 | 5446 ft | 237 kts | 224° |
| 2026-04-22 20:58 | 47.80010 | -117.26566 | 5459 ft | 239 kts | 225° |
| 2026-04-22 20:59 | 47.78817 | -117.28235 | 5465 ft | 240 kts | 226° |
| 2026-04-22 20:59 | 47.77632 | -117.29958 | 5470 ft | 240 kts | 227° |
| 2026-04-22 20:59 | 47.76489 | -117.31676 | 5479 ft | 240 kts | 227° |
| 2026-04-22 20:59 | 47.75398 | -117.33332 | 5531 ft | 220 kts | 227° |
| 2026-04-22 21:00 | 47.74415 | -117.34820 | 5457 ft | 199 kts | 227° |
| 2026-04-22 21:00 | 47.73505 | -117.36198 | 5107 ft | 188 kts | 227° |
| 2026-04-22 21:00 | 47.72662 | -117.37475 | 4932 ft | 173 kts | 227° |
| 2026-04-22 21:00 | 47.71889 | -117.38648 | 4743 ft | 165 kts | 227° |
| 2026-04-22 21:01 | 47.71151 | -117.39762 | 4563 ft | 162 kts | 226° |
| 2026-04-22 21:01 | 47.70416 | -117.40868 | 4361 ft | 160 kts | 226° |
| 2026-04-22 21:01 | 47.69688 | -117.41957 | 4176 ft | 158 kts | 226° |
| 2026-04-22 21:01 | 47.68965 | -117.43049 | 3976 ft | 159 kts | 225° |
| 2026-04-22 21:02 | 47.68243 | -117.44133 | 3785 ft | 157 kts | 225° |
| 2026-04-22 21:02 | 47.67518 | -117.45224 | 3575 ft | 158 kts | 225° |
| 2026-04-22 21:02 | 47.66773 | -117.46341 | 3361 ft | 157 kts | 224° |
| 2026-04-22 21:02 | 47.66053 | -117.47422 | 3183 ft | 158 kts | 224° |
| 2026-04-22 21:03 | 47.65303 | -117.48540 | 2976 ft | 158 kts | 224° |
| 2026-04-22 21:03 | 47.64566 | -117.49641 | 2769 ft | 158 kts | 225° |
| 2026-04-22 21:03 | 47.63836 | -117.50724 | 2594 ft | 157 kts | 226° |
| 2026-04-22 21:03 | 47.63121 | -117.51827 | 2404 ft | 158 kts | 225° |
| 2026-04-22 21:04 | 47.62396 | -117.52899 | 2361 ft | 136 kts | 229° |
| 2026-04-22 21:04 | 47.61962 | -117.53577 | 2372 ft | 56 kts | 226° |
| 2026-04-22 21:04 | 47.61756 | -117.53886 | 2377 ft | 17 kts | 221° |
| 2026-04-22 21:04 | 47.61749 | -117.53895 | 2377 ft | 0 kts | 221° |
| 2026-04-22 21:05 | 47.61746 | -117.53898 | 2377 ft | 1 kts | 221° |
| 2026-04-22 21:05 | 47.61721 | -117.53930 | 2378 ft | 12 kts | 221° |
| 2026-04-22 21:05 | 47.61690 | -117.54127 | 2378 ft | 31 kts | 269° |
| 2026-04-22 21:05 | 47.61681 | -117.54377 | 2378 ft | 19 kts | 248° |
| 2026-04-22 21:06 | 47.61596 | -117.54530 | 2380 ft | 20 kts | 226° |
| 2026-04-22 21:06 | 47.61494 | -117.54681 | 2382 ft | 21 kts | 225° |
| 2026-04-22 21:06 | 47.61411 | -117.54806 | 2384 ft | 4 kts | 225° |
| 2026-04-22 21:06 | 47.61380 | -117.54851 | 2384 ft | 10 kts | 225° |
| 2026-04-22 21:07 | 47.61293 | -117.54984 | 2386 ft | 25 kts | 226° |
| 2026-04-22 21:07 | 47.61185 | -117.55147 | 2388 ft | 16 kts | 213° |
| 2026-04-22 21:07 | 47.61085 | -117.55105 | 2390 ft | 16 kts | 137° |
| 2026-04-22 21:07 | 47.60999 | -117.54975 | 2392 ft | 18 kts | 134° |
| 2026-04-22 21:08 | 47.60926 | -117.54815 | 2393 ft | 19 kts | 85° |
| 2026-04-22 21:08 | 47.61017 | -117.54648 | 2392 ft | 22 kts | 45° |
| 2026-04-22 21:08 | 47.61133 | -117.54476 | 2390 ft | 25 kts | 45° |
| 2026-04-22 21:08 | 47.61266 | -117.54272 | 2388 ft | 29 kts | 47° |
| 2026-04-22 21:09 | 47.61412 | -117.54056 | 2384 ft | 32 kts | 44° |
| 2026-04-22 21:09 | 47.61573 | -117.53812 | 2381 ft | 35 kts | 46° |
| 2026-04-22 21:09 | 47.61744 | -117.53550 | 2377 ft | 38 kts | 45° |
| 2026-04-22 21:09 | 47.61932 | -117.53271 | 2371 ft | 41 kts | 46° |
| 2026-04-22 21:10 | 47.62133 | -117.52965 | 2366 ft | 45 kts | 45° |
| 2026-04-22 21:10 | 47.62350 | -117.52640 | 2362 ft | 47 kts | 46° |
| 2026-04-22 21:10 | 47.62562 | -117.52321 | 2354 ft | 33 kts | 45° |
| 2026-04-22 21:10 | 47.62653 | -117.52187 | 2353 ft | 13 kts | 45° |
| 2026-04-22 21:11 | 47.62714 | -117.52093 | 2350 ft | 15 kts | 50° |
| 2026-04-22 21:11 | 47.62717 | -117.51942 | 2348 ft | 6 kts | 109° |
| 2026-04-22 21:11 | 47.62712 | -117.51920 | 2348 ft | 2 kts | 110° |
| 2026-04-22 21:11 | 47.62710 | -117.51912 | 2348 ft | 0 kts | 110° |
| 2026-04-22 21:12 | 47.62710 | -117.51911 | 2348 ft | 0 kts | 110° |
| 2026-04-22 21:19 | 47.62710 | -117.51912 | 2348 ft | 0 kts | 110° |